createdAt,value
2022-12-31T00:02:20.361Z,98.57
2022-12-31T00:04:46.821Z,98.52
2022-12-31T00:07:13.152Z,98.56
2022-12-31T00:09:39.487Z,98.55
2022-12-31T00:12:06.083Z,98.55
2022-12-31T00:14:32.489Z,98.49
2022-12-31T00:16:58.958Z,98.64
2022-12-31T00:19:25.374Z,98.58
2022-12-31T00:21:51.773Z,98.72
2022-12-31T00:24:18.106Z,98.69
2022-12-31T00:26:44.548Z,98.84
2022-12-31T00:29:11.051Z,98.67
2022-12-31T00:31:38.854Z,98.72
2022-12-31T00:34:06.134Z,98.86
2022-12-31T00:36:35.876Z,98.83
2022-12-31T00:39:04.236Z,98.81
2022-12-31T00:41:31.750Z,98.86
2022-12-31T00:43:58.225Z,98.96
2022-12-31T00:46:25.397Z,98.91
2022-12-31T00:48:52.076Z,99.01
2022-12-31T00:51:20.921Z,98.94
2022-12-31T00:53:47.275Z,98.96
2022-12-31T00:56:19.273Z,98.91
2022-12-31T00:58:46.139Z,98.95
2022-12-31T01:01:18.983Z,99.07
2022-12-31T01:03:47.675Z,98.82
2022-12-31T01:06:14.396Z,99.01
2022-12-31T01:08:40.818Z,98.87
2022-12-31T01:11:20.402Z,98.79
2022-12-31T01:13:53.922Z,98.85
2022-12-31T01:16:22.960Z,98.80
2022-12-31T01:18:50.244Z,98.72
2022-12-31T01:21:17.872Z,98.68
2022-12-31T01:23:44.713Z,98.62
2022-12-31T01:26:13.461Z,98.42
2022-12-31T01:28:39.898Z,98.50
2022-12-31T01:31:08.568Z,98.50
2022-12-31T01:33:35.904Z,98.50
2022-12-31T01:36:04.446Z,98.58
2022-12-31T01:38:30.826Z,98.59
2022-12-31T01:40:57.312Z,98.52
2022-12-31T01:43:23.709Z,98.34
2022-12-31T01:45:54.319Z,98.46
2022-12-31T01:48:26.240Z,98.43
2022-12-31T01:50:54.751Z,98.33
2022-12-31T01:53:21.791Z,98.31
2022-12-31T01:55:56.473Z,98.30
2022-12-31T01:58:36.629Z,98.17
2022-12-31T02:01:04.504Z,98.21
2022-12-31T02:03:31.642Z,98.19
2022-12-31T02:06:05.420Z,98.16
2022-12-31T02:08:35.737Z,98.19
2022-12-31T02:11:23.728Z,98.18
2022-12-31T02:13:58.196Z,98.10
2022-12-31T02:16:35.662Z,98.11
2022-12-31T02:19:23.457Z,98.06
2022-12-31T02:22:31.884Z,98.12
2022-12-31T02:25:13.813Z,98.15
2022-12-31T02:28:21.828Z,98.03
2022-12-31T02:30:53.292Z,98.21
2022-12-31T02:33:59.668Z,98.06
2022-12-31T02:36:31.939Z,98.14
2022-12-31T02:38:59.434Z,98.06
2022-12-31T02:41:44.325Z,98.07
2022-12-31T02:44:24.118Z,98.06
2022-12-31T02:47:50.516Z,98.10
2022-12-31T02:50:55.331Z,97.89
2022-12-31T02:53:44.203Z,98.01
2022-12-31T02:56:19.995Z,97.95
2022-12-31T02:59:13.108Z,97.88
2022-12-31T03:02:04.039Z,97.80
2022-12-31T03:04:32.475Z,97.72
2022-12-31T03:07:06.824Z,97.82
2022-12-31T03:09:34.944Z,97.76
2022-12-31T03:12:21.017Z,97.92
2022-12-31T03:14:47.551Z,97.89
2022-12-31T03:17:14.360Z,97.59
2022-12-31T03:19:59.525Z,97.66
2022-12-31T03:22:28.708Z,97.59
2022-12-31T03:25:54.360Z,97.76
2022-12-31T03:28:23.275Z,97.72
2022-12-31T03:30:53.749Z,97.59
2022-12-31T03:33:21.525Z,97.75
2022-12-31T03:35:49.320Z,97.64
2022-12-31T03:38:16.918Z,97.55
2022-12-31T03:40:49.380Z,97.57
2022-12-31T03:43:16.585Z,97.63
2022-12-31T03:45:43.166Z,97.45
2022-12-31T03:48:10.591Z,97.65
2022-12-31T03:50:37.300Z,97.64
2022-12-31T03:53:03.793Z,97.36
2022-12-31T03:55:30.203Z,97.40
2022-12-31T03:57:56.996Z,97.44
2022-12-31T04:00:23.449Z,97.43
2022-12-31T04:02:50.846Z,97.39
2022-12-31T04:05:18.163Z,97.42
2022-12-31T04:07:44.683Z,97.42
2022-12-31T04:10:13.233Z,97.15
2022-12-31T04:12:39.979Z,97.07
2022-12-31T04:15:07.573Z,97.21
2022-12-31T04:17:34.302Z,97.17
2022-12-31T04:20:00.688Z,97.11
2022-12-31T04:22:27.034Z,97.27
2022-12-31T04:24:53.474Z,97.13
2022-12-31T04:27:19.864Z,97.17
2022-12-31T04:29:46.286Z,97.16
2022-12-31T04:32:12.741Z,97.11
2022-12-31T04:34:39.180Z,97.05
2022-12-31T04:37:05.519Z,97.07
2022-12-31T04:39:32.164Z,97.02
2022-12-31T04:41:58.637Z,96.91
2022-12-31T04:44:25.014Z,96.92
2022-12-31T04:46:51.544Z,96.80
2022-12-31T04:49:18.040Z,97.02
2022-12-31T04:51:44.468Z,97.07
2022-12-31T04:54:11.112Z,97.07
2022-12-31T04:56:37.679Z,97.03
2022-12-31T04:59:04.923Z,97.15
2022-12-31T05:01:31.594Z,97.05
2022-12-31T05:03:58.736Z,96.91
2022-12-31T05:06:25.195Z,97.13
2022-12-31T05:08:51.751Z,97.10
2022-12-31T05:11:18.281Z,97.10
2022-12-31T05:13:44.822Z,96.98
2022-12-31T05:16:11.637Z,97.09
2022-12-31T05:18:38.156Z,96.98
2022-12-31T05:21:05.226Z,97.22
2022-12-31T05:23:31.591Z,97.13
2022-12-31T05:25:59.649Z,97.19
2022-12-31T05:28:26.461Z,97.16
2022-12-31T05:30:52.963Z,97.20
2022-12-31T05:33:20.648Z,97.15
2022-12-31T05:35:47.220Z,97.40
2022-12-31T05:38:13.672Z,97.21
2022-12-31T05:40:40.024Z,97.61
2022-12-31T05:43:06.381Z,97.55
2022-12-31T05:45:32.734Z,97.66
2022-12-31T05:47:59.207Z,97.46
2022-12-31T05:50:25.597Z,97.79
2022-12-31T05:52:52.143Z,97.82
2022-12-31T05:55:18.790Z,97.86
2022-12-31T05:57:45.188Z,97.94
2022-12-31T06:00:12.559Z,98.09
2022-12-31T06:02:38.965Z,98.00
2022-12-31T06:05:05.840Z,98.17
2022-12-31T06:07:32.327Z,98.06
2022-12-31T06:09:59.004Z,98.04
2022-12-31T06:12:25.483Z,98.22
2022-12-31T06:14:51.873Z,98.49
2022-12-31T06:17:19.010Z,98.50
2022-12-31T06:19:46.595Z,98.35
2022-12-31T06:22:12.954Z,98.45
2022-12-31T06:24:39.381Z,98.53
2022-12-31T06:27:05.738Z,98.58
2022-12-31T06:29:32.123Z,98.63
2022-12-31T06:31:58.459Z,98.56
2022-12-31T06:34:24.945Z,98.66
2022-12-31T06:36:51.350Z,98.76
2022-12-31T06:39:17.747Z,98.75
2022-12-31T06:41:44.151Z,98.82
2022-12-31T06:44:10.561Z,98.80
2022-12-31T06:46:36.935Z,99.05
2022-12-31T06:49:03.442Z,99.00
2022-12-31T06:51:29.998Z,99.13
2022-12-31T06:53:56.452Z,99.17
2022-12-31T06:56:33.072Z,99.30
2022-12-31T06:59:02.735Z,99.17
2022-12-31T07:01:38.332Z,99.37
2022-12-31T07:04:04.761Z,99.36
2022-12-31T07:06:40.205Z,99.59
2022-12-31T07:09:17.337Z,99.28
2022-12-31T07:12:06.525Z,99.37
2022-12-31T07:14:46.264Z,99.41
2022-12-31T07:17:54.054Z,99.55
2022-12-31T07:20:20.893Z,99.47
2022-12-31T07:22:48.080Z,99.63
2022-12-31T07:25:17.328Z,99.59
2022-12-31T07:27:51.201Z,99.61
2022-12-31T07:30:24.593Z,99.64
2022-12-31T07:33:26.275Z,99.62
2022-12-31T07:36:00.336Z,99.61
2022-12-31T07:38:29.728Z,99.75
2022-12-31T07:41:01.603Z,99.84
2022-12-31T07:43:44.703Z,99.77
2022-12-31T07:46:28.644Z,99.81
2022-12-31T07:48:55.359Z,99.91
2022-12-31T07:51:22.192Z,99.97
2022-12-31T07:53:48.553Z,99.94
2022-12-31T07:56:14.982Z,99.90
2022-12-31T07:58:59.542Z,100.00
2022-12-31T08:01:47.347Z,100.00
2022-12-31T08:04:33.853Z,100.00
2022-12-31T08:07:22.131Z,100.00
2022-12-31T08:10:14.007Z,100.00
2022-12-31T08:12:46.804Z,100.00
2022-12-31T08:15:16.094Z,100.00
2022-12-31T08:17:42.752Z,100.00
2022-12-31T08:20:14.634Z,100.00
2022-12-31T08:23:02.916Z,100.00
2022-12-31T08:26:06.199Z,100.00
2022-12-31T08:29:10.095Z,100.00
2022-12-31T08:31:44.979Z,100.00
2022-12-31T08:34:22.380Z,100.00
2022-12-31T08:37:16.410Z,100.00
2022-12-31T08:40:07.104Z,100.00
2022-12-31T08:42:36.552Z,100.00
2022-12-31T08:45:15.172Z,100.00
2022-12-31T08:48:00.435Z,100.00
2022-12-31T08:50:27.704Z,100.00
2022-12-31T08:52:54.506Z,100.00
2022-12-31T08:55:21.181Z,100.00
2022-12-31T08:58:18.299Z,100.00
2022-12-31T09:00:46.520Z,100.00
2022-12-31T09:03:28.807Z,100.00
2022-12-31T09:06:10.330Z,100.00
2022-12-31T09:08:52.696Z,100.00
2022-12-31T09:11:25.150Z,99.95
2022-12-31T09:14:21.248Z,100.00
2022-12-31T09:17:21.472Z,99.91
2022-12-31T09:19:48.084Z,99.92
2022-12-31T09:22:14.682Z,99.93
2022-12-31T09:24:41.301Z,99.98
2022-12-31T09:27:21.163Z,99.80
2022-12-31T09:30:04.573Z,99.98
2022-12-31T09:33:01.041Z,99.78
2022-12-31T09:35:39.751Z,99.91
2022-12-31T09:38:17.049Z,99.77
2022-12-31T09:41:02.109Z,99.89
2022-12-31T09:43:47.447Z,99.78
2022-12-31T09:46:55.582Z,99.72
2022-12-31T09:49:51.132Z,99.74
2022-12-31T09:52:44.345Z,99.67
2022-12-31T09:55:31.092Z,99.60
2022-12-31T09:58:25.466Z,99.82
2022-12-31T10:00:59.010Z,99.79
2022-12-31T10:03:38.877Z,99.69
2022-12-31T10:06:32.983Z,99.84
2022-12-31T10:09:37.064Z,99.60
2022-12-31T10:12:28.520Z,99.70
2022-12-31T10:14:57.783Z,99.49
2022-12-31T10:17:45.468Z,99.49
2022-12-31T10:20:30.033Z,99.50
2022-12-31T10:23:17.907Z,99.40
2022-12-31T10:26:01.131Z,99.36
2022-12-31T10:28:30.356Z,99.32
2022-12-31T10:31:15.007Z,99.28
2022-12-31T10:34:02.759Z,99.25
2022-12-31T10:36:48.397Z,99.29
2022-12-31T10:39:38.177Z,99.21
2022-12-31T10:42:50.259Z,99.28
2022-12-31T10:45:45.661Z,99.13
2022-12-31T10:48:40.028Z,99.26
2022-12-31T10:51:33.245Z,99.19
2022-12-31T10:54:02.620Z,99.16
2022-12-31T10:56:50.844Z,99.00
2022-12-31T10:59:50.080Z,99.28
2022-12-31T11:02:34.999Z,99.11
2022-12-31T11:05:11.609Z,99.19
2022-12-31T11:07:54.650Z,99.33
2022-12-31T11:10:47.355Z,99.09
2022-12-31T11:13:52.467Z,99.35
2022-12-31T11:16:43.279Z,99.30
2022-12-31T11:19:24.644Z,99.46
2022-12-31T11:22:15.294Z,99.48
2022-12-31T11:25:03.605Z,99.52
2022-12-31T11:27:49.317Z,99.38
2022-12-31T11:30:24.526Z,99.50
2022-12-31T11:33:12.957Z,99.41
2022-12-31T11:36:24.569Z,99.44
2022-12-31T11:39:25.836Z,99.57
2022-12-31T11:42:14.750Z,99.67
2022-12-31T11:44:47.157Z,99.71
2022-12-31T11:50:52.668Z,99.72
2022-12-31T11:53:39.186Z,99.75
2022-12-31T11:56:17.386Z,99.69
2022-12-31T11:58:52.137Z,99.45
2022-12-31T12:01:24.734Z,99.43
2022-12-31T12:03:51.316Z,99.43
2022-12-31T12:06:23.905Z,99.33
2022-12-31T12:08:50.537Z,99.08
2022-12-31T12:11:30.334Z,98.98
2022-12-31T12:13:56.973Z,98.89
2022-12-31T12:16:25.344Z,98.65
2022-12-31T12:19:04.103Z,98.34
2022-12-31T12:21:30.731Z,98.33
2022-12-31T12:24:06.263Z,98.25
2022-12-31T12:26:47.263Z,98.21
2022-12-31T12:29:18.116Z,98.04
2022-12-31T12:32:17.620Z,97.78
2022-12-31T12:34:49.361Z,97.74
2022-12-31T12:37:25.089Z,97.54
2022-12-31T12:40:04.327Z,97.44
2022-12-31T12:42:31.477Z,97.55
2022-12-31T12:45:06.239Z,97.24
2022-12-31T12:47:34.236Z,97.13
2022-12-31T12:50:00.946Z,96.92
2022-12-31T12:52:56.401Z,96.78
2022-12-31T12:55:49.787Z,96.63
2022-12-31T12:58:34.089Z,96.55
2022-12-31T13:01:14.826Z,96.39
2022-12-31T13:04:14.608Z,96.02
2022-12-31T13:06:45.292Z,96.08
2022-12-31T13:09:22.465Z,95.83
2022-12-31T13:11:54.127Z,95.60
2022-12-31T13:14:32.758Z,95.50
2022-12-31T13:17:17.824Z,95.45
2022-12-31T13:20:11.816Z,95.26
2022-12-31T13:22:45.204Z,95.10
2022-12-31T13:25:48.676Z,95.07
2022-12-31T13:28:18.054Z,95.28
2022-12-31T13:30:49.311Z,95.47
2022-12-31T13:33:23.774Z,95.57
2022-12-31T13:35:59.351Z,95.67
2022-12-31T13:38:40.529Z,95.79
2022-12-31T13:41:25.475Z,95.80
2022-12-31T13:44:16.231Z,95.92
2022-12-31T13:47:03.552Z,95.81
2022-12-31T13:49:36.640Z,95.61
2022-12-31T13:52:19.163Z,95.99
2022-12-31T13:54:57.026Z,95.92
2022-12-31T13:57:40.856Z,96.06
2022-12-31T14:00:21.242Z,95.76
2022-12-31T14:02:53.795Z,96.09
2022-12-31T14:05:34.264Z,96.16
2022-12-31T14:08:02.725Z,95.95
2022-12-31T14:10:54.607Z,96.04
2022-12-31T14:13:32.510Z,95.73
2022-12-31T14:16:06.952Z,95.62
2022-12-31T14:18:44.849Z,95.59
2022-12-31T14:21:23.252Z,95.54
2022-12-31T14:24:09.693Z,95.34
2022-12-31T14:26:44.335Z,95.05
2022-12-31T14:29:10.976Z,95.00
2022-12-31T14:31:49.758Z,94.55
2022-12-31T14:34:29.113Z,94.56
2022-12-31T14:37:09.160Z,94.57
2022-12-31T14:40:00.741Z,94.99
2022-12-31T14:42:40.915Z,94.90
2022-12-31T14:45:38.697Z,94.88
2022-12-31T14:48:20.186Z,94.57
2022-12-31T14:50:48.836Z,94.52
2022-12-31T14:53:22.203Z,94.32
2022-12-31T14:56:01.402Z,94.06
2022-12-31T14:58:42.659Z,93.70
2022-12-31T15:01:15.249Z,93.62
2022-12-31T15:03:46.350Z,93.20
2022-12-31T15:06:22.388Z,93.18
2022-12-31T15:09:26.445Z,92.81
2022-12-31T15:12:09.957Z,93.13
2022-12-31T15:15:15.380Z,92.97
2022-12-31T15:17:59.794Z,92.91
2022-12-31T15:20:55.556Z,92.80
2022-12-31T15:23:37.020Z,92.83
2022-12-31T15:26:05.478Z,92.35
2022-12-31T15:28:34.101Z,92.37
2022-12-31T15:31:19.091Z,91.77
2022-12-31T15:34:01.285Z,90.69
2022-12-31T15:36:31.777Z,90.51
2022-12-31T15:39:11.946Z,90.51
2022-12-31T15:42:03.071Z,90.13
2022-12-31T15:44:37.866Z,89.55
2022-12-31T15:47:29.618Z,89.69
2022-12-31T15:50:01.662Z,89.25
2022-12-31T15:52:42.897Z,88.97
2022-12-31T15:55:20.300Z,88.12
2022-12-31T15:57:47.195Z,88.03
2022-12-31T16:00:20.230Z,87.64
2022-12-31T16:02:48.218Z,87.19
2022-12-31T16:05:26.779Z,86.91
2022-12-31T16:07:59.077Z,86.35
2022-12-31T16:10:29.259Z,85.67
2022-12-31T16:12:57.318Z,85.42
2022-12-31T16:15:27.377Z,85.37
2022-12-31T16:18:22.402Z,86.16
2022-12-31T16:20:49.321Z,85.18
2022-12-31T16:23:24.897Z,85.09
2022-12-31T16:25:53.581Z,85.41
2022-12-31T16:28:22.028Z,84.26
2022-12-31T16:31:15.122Z,84.70
2022-12-31T16:33:41.684Z,83.54
2022-12-31T16:36:20.832Z,84.07
2022-12-31T16:38:47.634Z,84.20
2022-12-31T16:41:19.678Z,84.06
2022-12-31T16:43:47.752Z,83.68
2022-12-31T16:46:17.199Z,83.03
2022-12-31T16:48:55.203Z,83.25
2022-12-31T16:51:25.787Z,82.97
2022-12-31T16:53:52.352Z,82.83
2022-12-31T16:56:34.241Z,82.87
2022-12-31T16:59:12.550Z,82.62
2022-12-31T17:01:39.704Z,82.16
2022-12-31T17:04:11.238Z,81.93
2022-12-31T17:06:37.809Z,81.89
2022-12-31T17:09:13.815Z,82.01
2022-12-31T17:11:55.071Z,82.56
2022-12-31T17:14:27.514Z,82.71
2022-12-31T17:17:05.673Z,82.12
2022-12-31T17:19:42.494Z,82.67
2022-12-31T17:22:32.755Z,81.36
2022-12-31T17:25:05.639Z,81.44
2022-12-31T17:27:32.625Z,81.19
2022-12-31T17:30:29.844Z,81.58
2022-12-31T17:33:12.418Z,81.15
2022-12-31T17:35:42.266Z,81.30
2022-12-31T17:38:20.846Z,80.58
2022-12-31T17:40:51.578Z,80.94
2022-12-31T17:43:21.022Z,80.76
2022-12-31T17:45:50.191Z,80.48
2022-12-31T17:48:19.108Z,80.33
2022-12-31T17:50:57.175Z,80.24
2022-12-31T17:53:23.687Z,80.42
2022-12-31T17:55:52.695Z,79.65
2022-12-31T17:58:31.841Z,79.90
2022-12-31T18:00:59.049Z,79.49
2022-12-31T18:03:25.551Z,80.08
2022-12-31T18:05:51.928Z,79.74
2022-12-31T18:08:18.399Z,78.92
2022-12-31T18:10:45.503Z,78.78
2022-12-31T18:13:21.133Z,78.85
2022-12-31T18:15:47.501Z,79.18
2022-12-31T18:18:24.327Z,78.75
2022-12-31T18:20:54.095Z,78.14
2022-12-31T18:23:28.517Z,78.77
2022-12-31T18:25:55.231Z,78.28
2022-12-31T18:28:21.689Z,78.22
2022-12-31T18:30:48.833Z,77.82
2022-12-31T18:33:22.356Z,77.79
2022-12-31T18:36:09.885Z,77.12
2022-12-31T18:38:36.908Z,77.40
2022-12-31T18:41:04.232Z,76.27
2022-12-31T18:43:30.933Z,76.36
2022-12-31T18:45:57.619Z,76.71
2022-12-31T18:48:24.068Z,75.99
2022-12-31T18:50:50.851Z,75.95
2022-12-31T18:53:22.082Z,75.22
2022-12-31T18:55:49.897Z,74.99
2022-12-31T18:58:16.847Z,74.61
2022-12-31T19:00:44.433Z,74.21
2022-12-31T19:03:22.697Z,74.27
2022-12-31T19:05:50.817Z,73.57
2022-12-31T19:08:18.691Z,72.68
2022-12-31T19:10:46.288Z,72.70
2022-12-31T19:13:14.628Z,73.07
2022-12-31T19:15:51.885Z,73.39
2022-12-31T19:18:18.711Z,73.04
2022-12-31T19:20:45.291Z,73.03
2022-12-31T19:23:17.968Z,72.63
2022-12-31T19:25:46.368Z,71.98
2022-12-31T19:28:17.439Z,71.84
2022-12-31T19:30:44.771Z,71.58
2022-12-31T19:33:11.716Z,71.66
2022-12-31T19:35:39.745Z,70.59
2022-12-31T19:38:11.915Z,71.91
2022-12-31T19:40:40.039Z,71.03
2022-12-31T19:43:12.492Z,70.90
2022-12-31T19:45:40.667Z,71.35
2022-12-31T19:48:11.666Z,71.63
2022-12-31T19:50:42.333Z,70.59
2022-12-31T19:53:12.003Z,70.37
2022-12-31T19:55:38.644Z,69.54
2022-12-31T19:58:06.029Z,70.34
2022-12-31T20:00:32.814Z,69.77
2022-12-31T20:02:59.524Z,69.71
2022-12-31T20:05:26.043Z,70.07
2022-12-31T20:07:52.414Z,69.44
2022-12-31T20:10:18.939Z,69.92
2022-12-31T20:12:45.634Z,70.16
2022-12-31T20:15:12.095Z,69.65
2022-12-31T20:17:38.536Z,69.37
2022-12-31T20:20:06.702Z,68.96
2022-12-31T20:22:33.621Z,68.90
2022-12-31T20:25:00.161Z,68.89
2022-12-31T20:27:26.720Z,69.01
2022-12-31T20:29:53.170Z,68.62
2022-12-31T20:32:19.715Z,68.99
2022-12-31T20:34:46.088Z,68.53
2022-12-31T20:37:12.553Z,68.66
2022-12-31T20:39:38.968Z,69.44
2022-12-31T20:42:05.413Z,69.10
2022-12-31T20:44:31.816Z,68.17
2022-12-31T20:46:58.191Z,68.28
2022-12-31T20:49:52.099Z,67.97
2022-12-31T20:52:11.009Z,68.61
2022-12-31T20:54:37.468Z,67.83
2022-12-31T20:57:03.945Z,67.91
2022-12-31T20:59:31.252Z,67.54
2022-12-31T21:02:21.029Z,67.56
2022-12-31T21:04:45.332Z,67.65
2022-12-31T21:07:11.878Z,67.85
2022-12-31T21:09:38.236Z,67.89
2022-12-31T21:12:23.211Z,67.35
2022-12-31T21:14:49.580Z,67.45
2022-12-31T21:17:15.904Z,67.25
2022-12-31T21:19:42.360Z,67.31
2022-12-31T21:22:08.688Z,68.26
2022-12-31T21:24:35.063Z,68.38
2022-12-31T21:27:01.479Z,67.38
2022-12-31T21:29:31.332Z,68.03
2022-12-31T21:32:00.888Z,67.99
2022-12-31T21:34:27.284Z,67.86
2022-12-31T21:36:53.682Z,67.82
2022-12-31T21:39:20.043Z,66.91
2022-12-31T21:41:52.130Z,67.64
2022-12-31T21:44:28.343Z,67.83
2022-12-31T21:47:36.444Z,68.21
2022-12-31T21:50:05.209Z,68.73
2022-12-31T21:52:33.893Z,67.82
2022-12-31T21:55:20.891Z,68.51
2022-12-31T21:58:24.380Z,68.23
2022-12-31T22:00:55.124Z,68.36
2022-12-31T22:03:24.278Z,67.05
2022-12-31T22:05:58.782Z,67.22
2022-12-31T22:08:25.900Z,66.50
2022-12-31T22:10:53.210Z,66.45
2022-12-31T22:13:19.929Z,67.18
2022-12-31T22:15:48.225Z,66.65
2022-12-31T22:18:16.369Z,67.13
2022-12-31T22:20:42.805Z,67.09
2022-12-31T22:23:09.365Z,66.71
2022-12-31T22:25:37.800Z,66.86
2022-12-31T22:28:37.031Z,67.41
2022-12-31T22:30:52.108Z,66.79
2022-12-31T22:33:18.814Z,66.68
2022-12-31T22:35:45.197Z,66.76
2022-12-31T22:38:12.349Z,66.89
2022-12-31T22:40:39.286Z,66.85
2022-12-31T22:43:05.624Z,66.60
2022-12-31T22:45:31.983Z,65.86
2022-12-31T22:47:58.359Z,66.51
2022-12-31T22:50:24.717Z,66.10
2022-12-31T22:52:51.091Z,65.79
2022-12-31T22:55:17.507Z,66.09
2022-12-31T22:57:43.843Z,65.89
2022-12-31T23:00:13.651Z,65.87
2022-12-31T23:02:42.236Z,65.43
2022-12-31T23:05:16.123Z,65.95
2022-12-31T23:07:43.057Z,65.89
2022-12-31T23:10:29.295Z,65.62
2022-12-31T23:12:55.624Z,65.61
2022-12-31T23:15:40.388Z,66.18
2022-12-31T23:18:25.165Z,66.40
2022-12-31T23:21:09.953Z,66.27
2022-12-31T23:23:36.345Z,65.88
2022-12-31T23:26:02.804Z,66.15
2022-12-31T23:28:29.176Z,65.17
2022-12-31T23:30:55.544Z,65.12
2022-12-31T23:33:26.538Z,65.79
2022-12-31T23:36:06.823Z,65.69
2022-12-31T23:38:33.297Z,65.40
2022-12-31T23:40:59.708Z,65.12
2022-12-31T23:43:26.084Z,65.82
2022-12-31T23:45:53.149Z,65.91
2022-12-31T23:48:19.895Z,66.00
2022-12-31T23:50:53.012Z,66.25
2022-12-31T23:53:20.477Z,66.02
2022-12-31T23:55:46.812Z,65.98
2022-12-31T23:58:13.194Z,66.32
